createdAt,value
2017-05-18T00:00:53.755Z,0
2017-05-18T00:01:53.774Z,0
2017-05-18T00:02:53.758Z,0
2017-05-18T00:03:53.744Z,0
2017-05-18T00:04:53.753Z,0
2017-05-18T00:05:53.738Z,0
2017-05-18T00:06:53.755Z,0
2017-05-18T00:07:53.759Z,0
2017-05-18T00:08:53.777Z,0
2017-05-18T00:09:53.759Z,0
2017-05-18T00:10:53.749Z,0
2017-05-18T00:11:53.725Z,0
2017-05-18T00:12:53.757Z,0
2017-05-18T00:13:53.757Z,0
2017-05-18T00:14:53.779Z,0
2017-05-18T00:15:53.867Z,0
2017-05-18T00:16:53.759Z,0
2017-05-18T00:17:53.754Z,0
2017-05-18T00:18:53.752Z,0
2017-05-18T00:19:53.764Z,0
2017-05-18T00:20:53.728Z,0
2017-05-18T00:21:53.752Z,0
2017-05-18T00:22:53.751Z,0
2017-05-18T00:23:53.750Z,0
2017-05-18T00:24:53.764Z,0
2017-05-18T00:25:53.767Z,0
2017-05-18T00:26:53.758Z,0
2017-05-18T00:27:53.762Z,0
2017-05-18T00:28:53.826Z,0
2017-05-18T00:29:53.792Z,0
2017-05-18T00:30:53.757Z,0
2017-05-18T00:31:53.770Z,0
2017-05-18T00:32:53.769Z,0
2017-05-18T00:33:53.764Z,0
2017-05-18T00:34:53.736Z,0
2017-05-18T00:35:53.771Z,0
2017-05-18T00:36:53.763Z,0
2017-05-18T00:37:53.768Z,0
2017-05-18T00:38:53.764Z,0
2017-05-18T00:39:53.770Z,0
2017-05-18T00:40:53.736Z,0
2017-05-18T00:41:53.772Z,0
2017-05-18T00:42:53.798Z,0
2017-05-18T00:43:53.765Z,0
2017-05-18T00:44:53.776Z,0
2017-05-18T00:45:53.766Z,0
2017-05-18T00:46:53.840Z,0
2017-05-18T00:47:53.778Z,0
2017-05-18T00:48:53.779Z,0
2017-05-18T00:49:53.778Z,0
2017-05-18T00:50:53.800Z,0
2017-05-18T00:51:53.765Z,0
2017-05-18T00:52:53.780Z,0
2017-05-18T00:53:53.741Z,0
2017-05-18T00:54:53.763Z,0
2017-05-18T00:55:53.800Z,0
2017-05-18T00:56:53.800Z,0
2017-05-18T00:57:53.783Z,0
2017-05-18T00:58:53.889Z,0
2017-05-18T00:59:53.783Z,0
2017-05-18T01:00:53.776Z,0
2017-05-18T01:01:53.785Z,0
2017-05-18T01:02:53.769Z,0
2017-05-18T01:03:53.790Z,0
2017-05-18T01:04:53.808Z,0
2017-05-18T01:05:53.786Z,0
2017-05-18T01:06:53.791Z,0
2017-05-18T01:07:53.784Z,0
2017-05-18T01:08:53.751Z,0
2017-05-18T01:09:53.789Z,0
2017-05-18T01:10:53.768Z,0
2017-05-18T01:11:53.780Z,0
2017-05-18T01:12:53.788Z,0
2017-05-18T01:13:53.795Z,0
2017-05-18T01:14:53.778Z,0
2017-05-18T01:15:53.810Z,0
2017-05-18T01:16:53.811Z,0
2017-05-18T01:17:53.761Z,0
2017-05-18T01:18:53.813Z,0
2017-05-18T01:19:53.759Z,0
2017-05-18T01:20:53.777Z,0
2017-05-18T01:21:53.817Z,0
2017-05-18T01:22:53.761Z,0
2017-05-18T01:23:53.803Z,0
2017-05-18T01:24:53.783Z,0
2017-05-18T01:25:53.763Z,0
2017-05-18T01:26:53.797Z,0
2017-05-18T01:27:53.760Z,0
2017-05-18T01:28:53.798Z,0
2017-05-18T01:29:53.815Z,0
2017-05-18T01:30:53.801Z,0
2017-05-18T01:31:53.767Z,0
2017-05-18T01:32:53.804Z,0
2017-05-18T01:33:53.805Z,0
2017-05-18T01:34:53.805Z,0
2017-05-18T01:35:53.803Z,0
2017-05-18T01:36:53.803Z,0
2017-05-18T01:37:53.808Z,0
2017-05-18T01:38:53.802Z,0
2017-05-18T01:39:53.804Z,0
2017-05-18T01:40:53.794Z,0
2017-05-18T01:41:53.827Z,0
2017-05-18T01:42:53.808Z,0
2017-05-18T01:43:53.807Z,0
2017-05-18T01:44:53.806Z,0
2017-05-18T01:45:53.826Z,0
2017-05-18T01:46:53.809Z,0
2017-05-18T01:47:53.773Z,0
2017-05-18T01:48:53.771Z,0
2017-05-18T01:49:53.771Z,0
2017-05-18T01:50:53.771Z,0
2017-05-18T01:51:53.831Z,0
2017-05-18T01:52:53.804Z,0
2017-05-18T01:53:53.834Z,0
2017-05-18T01:54:53.813Z,0
2017-05-18T01:55:53.813Z,0
2017-05-18T01:56:53.779Z,0
2017-05-18T01:57:53.832Z,0
2017-05-18T01:58:53.918Z,0
2017-05-18T01:59:53.817Z,0
2017-05-18T02:00:53.815Z,0
2017-05-18T02:01:53.793Z,0
2017-05-18T02:02:53.779Z,0
2017-05-18T02:03:53.836Z,0
2017-05-18T02:04:53.835Z,0
2017-05-18T02:05:53.799Z,0
2017-05-18T02:06:53.798Z,0
2017-05-18T02:07:53.873Z,0
2017-05-18T02:08:53.824Z,0
2017-05-18T02:09:53.818Z,0
2017-05-18T02:10:53.843Z,0
2017-05-18T02:11:53.820Z,0
2017-05-18T02:12:53.815Z,0
2017-05-18T02:13:53.816Z,0
2017-05-18T02:14:53.785Z,0
2017-05-18T02:15:53.834Z,0
2017-05-18T02:16:53.822Z,0
2017-05-18T02:17:53.824Z,0
2017-05-18T02:18:53.806Z,0
2017-05-18T02:19:53.805Z,0
2017-05-18T02:20:53.803Z,0
2017-05-18T02:21:53.849Z,0
2017-05-18T02:22:53.829Z,0
2017-05-18T02:23:53.817Z,0
2017-05-18T02:24:53.828Z,0
2017-05-18T02:25:53.826Z,0
2017-05-18T02:26:53.846Z,0
2017-05-18T02:27:53.813Z,0
2017-05-18T02:28:53.853Z,0
2017-05-18T02:29:53.869Z,0
2017-05-18T02:30:53.813Z,0
2017-05-18T02:31:53.830Z,0
2017-05-18T02:32:53.820Z,0
2017-05-18T02:33:53.832Z,0
2017-05-18T02:34:53.821Z,0
2017-05-18T02:35:53.826Z,0
2017-05-18T02:36:53.836Z,0
2017-05-18T02:37:53.845Z,0
2017-05-18T02:38:53.839Z,4
2017-05-18T02:39:53.830Z,4
2017-05-18T02:40:53.801Z,4
2017-05-18T02:41:53.863Z,4
2017-05-18T02:42:53.838Z,0
2017-05-18T02:43:53.831Z,4
2017-05-18T02:44:53.828Z,4
2017-05-18T02:45:53.835Z,4
2017-05-18T02:46:53.891Z,8
2017-05-18T02:47:53.841Z,4
2017-05-18T02:48:53.832Z,8
2017-05-18T02:49:53.948Z,8
2017-05-18T02:50:53.807Z,12
2017-05-18T02:51:53.800Z,12
2017-05-18T02:52:53.846Z,12
2017-05-18T02:53:53.841Z,12
2017-05-18T02:54:53.834Z,16
2017-05-18T02:55:53.843Z,20
2017-05-18T02:56:53.807Z,24
2017-05-18T02:57:53.851Z,28
2017-05-18T02:58:53.845Z,32
2017-05-18T02:59:53.814Z,36
2017-05-18T03:00:53.808Z,44
2017-05-18T03:01:53.868Z,48
2017-05-18T03:02:53.848Z,60
2017-05-18T03:03:53.845Z,72
2017-05-18T03:04:53.877Z,84
2017-05-18T03:05:53.852Z,92
2017-05-18T03:06:53.828Z,108
2017-05-18T03:07:53.842Z,120
2017-05-18T03:08:53.850Z,136
2017-05-18T03:09:53.843Z,152
2017-05-18T03:10:53.835Z,176
2017-05-18T03:11:53.847Z,200
2017-05-18T03:12:53.858Z,224
2017-05-18T03:13:53.843Z,248
2017-05-18T03:14:53.844Z,276
2017-05-18T03:15:53.846Z,308
2017-05-18T03:16:53.844Z,340
2017-05-18T03:17:53.861Z,368
2017-05-18T03:18:53.899Z,404
2017-05-18T03:19:53.858Z,436
2017-05-18T03:20:53.845Z,476
2017-05-18T03:21:53.849Z,520
2017-05-18T03:22:53.858Z,564
2017-05-18T03:23:53.876Z,612
2017-05-18T03:24:53.859Z,660
2017-05-18T03:25:53.842Z,720
2017-05-18T03:26:53.968Z,772
2017-05-18T03:27:53.860Z,832
2017-05-18T03:28:53.862Z,896
2017-05-18T03:29:53.827Z,960
2017-05-18T03:30:53.856Z,1028
2017-05-18T03:31:53.885Z,1096
2017-05-18T03:32:53.968Z,1172
2017-05-18T03:33:53.866Z,1248
2017-05-18T03:34:53.857Z,1340
2017-05-18T03:35:53.857Z,1428
2017-05-18T03:36:53.829Z,1516
2017-05-18T03:37:53.858Z,1604
2017-05-18T03:38:53.840Z,1692
2017-05-18T03:39:53.865Z,1776
2017-05-18T03:40:53.832Z,1856
2017-05-18T03:41:53.970Z,1944
2017-05-18T03:42:53.867Z,2020
2017-05-18T03:43:53.847Z,2096
2017-05-18T03:44:53.871Z,2160
2017-05-18T03:45:53.865Z,2224
2017-05-18T03:46:53.866Z,2304
2017-05-18T03:47:53.872Z,2392
2017-05-18T03:48:53.888Z,2492
2017-05-18T03:49:53.941Z,2596
2017-05-18T03:50:53.868Z,2692
2017-05-18T03:51:53.833Z,2812
2017-05-18T03:52:53.865Z,2964
2017-05-18T03:53:53.872Z,3144
2017-05-18T03:54:53.872Z,3360
2017-05-18T03:55:53.828Z,3572
2017-05-18T03:56:53.978Z,3768
2017-05-18T03:57:53.838Z,3932
2017-05-18T03:58:53.840Z,4096
2017-05-18T03:59:53.878Z,4220
2017-05-18T04:00:53.877Z,4332
2017-05-18T04:01:53.871Z,4448
2017-05-18T04:02:53.880Z,4556
2017-05-18T04:03:53.875Z,4664
2017-05-18T04:04:53.869Z,4760
2017-05-18T04:05:53.877Z,4864
2017-05-18T04:06:53.875Z,4948
2017-05-18T04:07:53.855Z,5036
2017-05-18T04:08:53.883Z,5116
2017-05-18T04:09:53.900Z,5196
2017-05-18T04:10:53.880Z,5268
2017-05-18T04:11:53.874Z,5336
2017-05-18T04:12:53.900Z,5416
2017-05-18T04:13:53.879Z,5488
2017-05-18T04:14:53.877Z,5568
2017-05-18T04:15:53.885Z,5640
2017-05-18T04:16:53.844Z,5716
2017-05-18T04:17:53.882Z,5804
2017-05-18T04:18:53.847Z,5896
2017-05-18T04:19:53.890Z,5960
2017-05-18T04:20:53.844Z,6000
2017-05-18T04:21:53.887Z,6052
2017-05-18T04:22:53.883Z,6104
2017-05-18T04:23:53.888Z,6140
2017-05-18T04:24:53.885Z,6204
2017-05-18T04:25:53.889Z,6276
2017-05-18T04:26:53.908Z,6356
2017-05-18T04:27:53.890Z,6424
2017-05-18T04:28:53.870Z,6532
2017-05-18T04:29:53.890Z,6644
2017-05-18T04:30:53.850Z,6724
2017-05-18T04:31:53.893Z,6800
2017-05-18T04:32:53.892Z,6916
2017-05-18T04:33:53.885Z,7024
2017-05-18T04:34:53.896Z,7108
2017-05-18T04:35:53.914Z,7176
2017-05-18T04:36:53.916Z,7296
2017-05-18T04:37:53.858Z,7444
2017-05-18T04:38:53.853Z,7592
2017-05-18T04:39:53.899Z,7736
2017-05-18T04:40:53.873Z,7916
2017-05-18T04:41:53.875Z,8076
2017-05-18T04:42:53.890Z,8212
2017-05-18T04:43:53.892Z,8336
2017-05-18T04:44:53.892Z,8436
2017-05-18T04:45:53.862Z,8524
2017-05-18T04:46:53.919Z,8636
2017-05-18T04:47:53.898Z,8728
2017-05-18T04:48:53.900Z,8772
2017-05-18T04:49:53.861Z,8796
2017-05-18T04:50:53.862Z,8796
2017-05-18T04:51:53.922Z,8840
2017-05-18T04:52:53.903Z,8908
2017-05-18T04:53:53.895Z,8972
2017-05-18T04:54:53.898Z,9020
2017-05-18T04:55:53.893Z,9040
2017-05-18T04:56:53.894Z,9068
2017-05-18T04:57:53.898Z,9076
2017-05-18T04:58:53.906Z,9108
2017-05-18T04:59:53.884Z,9128
2017-05-18T05:00:53.870Z,9176
2017-05-18T05:01:53.905Z,9212
2017-05-18T05:02:53.930Z,9260
2017-05-18T05:03:53.909Z,9304
2017-05-18T05:04:53.909Z,9324
2017-05-18T05:05:53.907Z,9368
2017-05-18T05:06:53.911Z,9452
2017-05-18T05:07:54.011Z,9552
2017-05-18T05:08:53.891Z,9620
2017-05-18T05:09:53.909Z,9700
2017-05-18T05:10:53.910Z,9760
2017-05-18T05:11:53.891Z,9860
2017-05-18T05:12:53.913Z,9916
2017-05-18T05:13:54.015Z,9924
2017-05-18T05:14:53.874Z,9932
2017-05-18T05:15:53.906Z,9904
2017-05-18T05:16:53.906Z,9888
2017-05-18T05:17:53.909Z,9908
2017-05-18T05:18:53.916Z,9924
2017-05-18T05:19:53.876Z,9944
2017-05-18T05:20:53.917Z,9948
2017-05-18T05:21:53.889Z,9920
2017-05-18T05:22:53.923Z,9892
2017-05-18T05:23:53.919Z,9852
2017-05-18T05:24:53.920Z,9844
2017-05-18T05:25:53.921Z,9876
2017-05-18T05:26:53.937Z,9872
2017-05-18T05:27:53.871Z,9916
2017-05-18T05:28:53.925Z,9944
2017-05-18T05:29:53.914Z,9996
2017-05-18T05:30:53.919Z,10040
2017-05-18T05:31:53.896Z,9984
2017-05-18T05:32:53.885Z,9912
2017-05-18T05:33:53.944Z,9928
2017-05-18T05:34:53.945Z,9784
2017-05-18T05:35:53.921Z,10508
2017-05-18T05:36:53.884Z,10632
2017-05-18T05:37:53.901Z,10600
2017-05-18T05:38:53.924Z,10816
2017-05-18T05:39:53.946Z,11536
2017-05-18T05:40:53.927Z,22080
2017-05-18T05:41:53.946Z,34272
2017-05-18T05:42:53.983Z,36224
2017-05-18T05:43:53.925Z,36160
2017-05-18T05:44:53.930Z,36928
2017-05-18T05:45:53.927Z,39488
2017-05-18T05:46:53.912Z,35904
2017-05-18T05:47:53.932Z,42304
2017-05-18T05:48:53.922Z,41856
2017-05-18T05:49:53.931Z,42272
2017-05-18T05:50:53.936Z,41760
2017-05-18T05:51:53.983Z,38016
2017-05-18T05:52:53.924Z,39808
2017-05-18T05:53:53.953Z,39840
2017-05-18T05:54:53.935Z,41216
2017-05-18T05:56:53.913Z,46912
2017-05-18T05:57:53.936Z,49376
2017-05-18T05:58:53.956Z,50560
2017-05-18T05:59:53.898Z,49856
2017-05-18T06:00:53.951Z,47296
2017-05-18T06:01:53.959Z,44800
2017-05-18T06:02:53.900Z,43552
2017-05-18T06:03:53.930Z,43232
2017-05-18T06:04:53.939Z,44544
2017-05-18T06:05:53.916Z,46816
2017-05-18T06:06:53.946Z,49664
2017-05-18T06:07:53.914Z,51904
2017-05-18T06:08:53.941Z,52384
2017-05-18T06:09:53.941Z,51136
2017-05-18T06:10:53.947Z,48128
2017-05-18T06:11:53.932Z,44800
2017-05-18T06:12:53.936Z,44544
2017-05-18T06:13:53.920Z,43840
2017-05-18T06:14:53.936Z,46336
2017-05-18T06:15:53.937Z,50368
2017-05-18T06:16:53.943Z,51680
2017-05-18T06:17:53.945Z,56288
2017-05-18T06:18:53.947Z,58240
2017-05-18T06:19:53.967Z,58400
2017-05-18T06:20:53.960Z,57760
2017-05-18T06:21:53.941Z,57152
2017-05-18T06:22:53.927Z,56736
2017-05-18T06:23:53.942Z,56416
2017-05-18T06:24:53.922Z,56160
2017-05-18T06:25:53.941Z,56768
2017-05-18T06:26:53.940Z,57408
2017-05-18T06:27:53.952Z,58176
2017-05-18T06:28:53.946Z,58848
2017-05-18T06:29:53.914Z,57984
2017-05-18T06:30:53.910Z,57088
2017-05-18T06:31:53.946Z,58624
2017-05-18T06:32:53.946Z,60064
2017-05-18T06:33:53.974Z,60736
2017-05-18T06:34:53.952Z,61856
2017-05-18T06:35:53.955Z,62816
2017-05-18T06:36:53.955Z,62368
2017-05-18T06:37:53.939Z,63648
2017-05-18T06:38:53.951Z,36736
2017-05-18T06:39:53.959Z,63232
2017-05-18T06:40:53.918Z,63520
2017-05-18T06:41:53.977Z,65504
2017-05-18T06:42:53.981Z,65888
2017-05-18T06:43:53.919Z,64096
2017-05-18T06:44:53.975Z,62944
2017-05-18T06:45:53.957Z,62464
2017-05-18T06:46:53.955Z,63296
2017-05-18T06:47:53.953Z,65280
2017-05-18T06:48:53.955Z,67104
2017-05-18T06:49:54.003Z,69664
2017-05-18T06:50:53.957Z,66336
2017-05-18T06:51:53.924Z,68640
2017-05-18T06:52:53.925Z,67840
2017-05-18T06:53:53.956Z,67040
2017-05-18T06:54:53.972Z,64800
2017-05-18T06:55:53.964Z,62592
2017-05-18T06:56:53.962Z,59904
2017-05-18T06:57:53.968Z,59648
2017-05-18T06:58:53.972Z,63776
2017-05-18T06:59:53.966Z,65760
2017-05-18T07:00:53.959Z,68032
2017-05-18T07:01:53.969Z,63840
2017-05-18T07:02:53.988Z,64320
2017-05-18T07:03:53.911Z,65184
2017-05-18T07:04:53.876Z,62112
2017-05-18T07:05:53.990Z,64448
2017-05-18T07:06:53.907Z,66912
2017-05-18T07:07:53.912Z,63872
2017-05-18T07:08:53.917Z,64064
2017-05-18T07:09:53.867Z,66208
2017-05-18T07:10:53.915Z,67296
2017-05-18T07:11:53.912Z,68448
2017-05-18T07:12:53.912Z,71136
2017-05-18T07:13:53.973Z,74048
2017-05-18T07:14:53.977Z,74304
2017-05-18T07:15:53.975Z,77920
2017-05-18T07:16:53.969Z,80192
2017-05-18T07:17:53.943Z,81920
2017-05-18T07:18:53.963Z,81344
2017-05-18T07:19:53.946Z,80800
2017-05-18T07:20:54.028Z,80768
2017-05-18T07:21:53.974Z,79872
2017-05-18T07:22:53.983Z,80064
2017-05-18T07:23:53.949Z,78720
2017-05-18T07:24:53.947Z,80640
2017-05-18T07:25:53.948Z,74368
2017-05-18T07:26:53.952Z,76864
2017-05-18T07:27:53.948Z,81056
2017-05-18T07:28:53.952Z,82496
2017-05-18T07:29:53.950Z,81952
2017-05-18T07:30:53.950Z,81920
2017-05-18T07:31:53.956Z,82112
2017-05-18T07:32:53.972Z,82592
2017-05-18T07:33:53.979Z,86784
2017-05-18T07:34:54.092Z,89120
2017-05-18T07:35:54.028Z,90464
2017-05-18T07:36:53.983Z,91232
2017-05-18T07:37:53.996Z,83552
2017-05-18T07:38:53.987Z,89568
2017-05-18T07:39:53.982Z,88320
2017-05-18T07:40:54.013Z,88224
2017-05-18T07:41:53.995Z,88640
2017-05-18T07:42:54.034Z,84896
2017-05-18T07:43:54.017Z,79872
2017-05-18T07:44:53.998Z,84128
2017-05-18T07:45:53.992Z,93824
2017-05-18T07:46:53.997Z,94528
2017-05-18T07:47:53.993Z,93856
2017-05-18T07:48:54.025Z,93152
2017-05-18T07:49:53.996Z,90496
2017-05-18T07:50:54.032Z,86176
2017-05-18T07:51:53.959Z,86048
2017-05-18T07:52:54.002Z,84384
2017-05-18T07:53:53.990Z,85728
2017-05-18T07:54:53.997Z,86240
2017-05-18T07:55:53.955Z,88864
2017-05-18T07:56:53.990Z,90240
2017-05-18T07:57:53.984Z,91872
2017-05-18T07:58:53.985Z,88896
2017-05-18T07:59:53.990Z,87904
2017-05-18T08:00:53.992Z,90464
2017-05-18T08:01:53.990Z,90816
2017-05-18T08:02:53.991Z,89696
2017-05-18T08:03:54.025Z,90368
2017-05-18T08:04:54.006Z,89088
2017-05-18T08:05:54.001Z,91520
2017-05-18T08:06:54.105Z,88992
2017-05-18T08:07:54.029Z,88128
2017-05-18T08:08:54.019Z,87488
2017-05-18T08:09:54.027Z,90528
2017-05-18T08:10:53.999Z,89728
2017-05-18T08:11:53.996Z,93856
2017-05-18T08:12:54.047Z,94176
2017-05-18T08:13:54.028Z,94464
2017-05-18T08:14:53.992Z,94272
2017-05-18T08:15:54.005Z,93952
2017-05-18T08:16:53.967Z,92384
2017-05-18T08:17:53.995Z,91264
2017-05-18T08:18:54.012Z,92160
2017-05-18T08:19:53.976Z,92640
2017-05-18T08:20:54.013Z,91680
2017-05-18T08:21:54.031Z,89760
2017-05-18T08:22:54.001Z,94240
2017-05-18T08:23:53.976Z,96640
2017-05-18T08:24:53.987Z,99072
2017-05-18T08:25:53.982Z,105824
2017-05-18T08:26:53.980Z,104960
2017-05-18T08:27:53.980Z,102464
2017-05-18T08:28:54.005Z,95456
2017-05-18T08:29:53.984Z,95264
2017-05-18T08:30:53.980Z,93984
2017-05-18T08:31:53.983Z,94720
2017-05-18T08:32:53.986Z,101472
2017-05-18T08:33:54.010Z,106400
2017-05-18T08:34:54.007Z,108224
2017-05-18T08:35:54.007Z,108864
2017-05-18T08:36:54.009Z,110144
2017-05-18T08:37:54.015Z,98048
2017-05-18T08:38:54.010Z,105536
2017-05-18T08:39:54.002Z,105152
2017-05-18T08:40:54.011Z,107136
2017-05-18T08:41:54.009Z,109120
2017-05-18T08:42:54.012Z,109408
2017-05-18T08:43:54.013Z,108032
2017-05-18T08:44:54.012Z,109760
2017-05-18T08:45:54.007Z,110752
2017-05-18T08:46:54.020Z,112384
2017-05-18T08:47:54.027Z,113408
2017-05-18T08:48:54.025Z,114592
2017-05-18T08:49:54.015Z,116992
2017-05-18T08:50:54.019Z,116992
2017-05-18T08:51:54.031Z,115296
2017-05-18T08:52:54.033Z,112192
2017-05-18T08:53:53.994Z,109888
2017-05-18T08:54:53.998Z,108960
2017-05-18T08:55:53.998Z,110752
2017-05-18T08:56:54.000Z,94400
2017-05-18T08:57:54.002Z,118144
2017-05-18T08:58:54.000Z,119872
2017-05-18T08:59:53.999Z,120320
2017-05-18T09:00:54.003Z,117088
2017-05-18T09:01:54.003Z,120000
2017-05-18T09:02:54.012Z,118112
2017-05-18T09:03:54.003Z,115680
2017-05-18T09:04:54.023Z,113280
2017-05-18T09:05:54.026Z,113088
2017-05-18T09:06:54.025Z,110368
2017-05-18T09:07:54.024Z,111360
2017-05-18T09:08:54.023Z,111200
2017-05-18T09:09:54.026Z,111680
2017-05-18T09:10:54.024Z,112992
2017-05-18T09:11:54.020Z,113216
2017-05-18T09:12:54.031Z,115328
2017-05-18T09:13:54.019Z,116960
2017-05-18T09:14:54.021Z,117632
2017-05-18T09:15:54.016Z,116768
2017-05-18T09:16:54.019Z,116480
2017-05-18T09:17:54.027Z,115360
2017-05-18T09:18:54.019Z,114112
2017-05-18T09:19:54.027Z,108736
2017-05-18T09:20:54.020Z,118368
2017-05-18T09:21:54.027Z,117376
2017-05-18T09:22:54.023Z,117824
2017-05-18T09:23:54.018Z,116992
2017-05-18T09:24:54.010Z,117952
2017-05-18T09:25:54.013Z,117408
2017-05-18T09:26:54.011Z,119040
2017-05-18T09:27:54.014Z,121600
2017-05-18T09:28:54.012Z,121184
2017-05-18T09:29:54.014Z,120416
2017-05-18T09:30:54.016Z,118720
2017-05-18T09:31:54.015Z,116992
2017-05-18T09:32:54.016Z,114400
2017-05-18T09:33:54.015Z,114976
2017-05-18T09:34:54.018Z,117216
2017-05-18T09:35:54.016Z,122880
2017-05-18T09:36:54.017Z,127904
2017-05-18T09:37:54.017Z,132320
2017-05-18T09:38:54.020Z,134336
2017-05-18T09:39:54.022Z,131424
2017-05-18T09:40:54.121Z,131104
2017-05-18T09:41:54.024Z,125568
2017-05-18T09:42:54.019Z,124768
2017-05-18T09:43:54.022Z,124416
2017-05-18T09:44:54.042Z,120608
2017-05-18T09:45:54.040Z,122336
2017-05-18T09:46:54.048Z,125472
2017-05-18T09:47:54.046Z,127744
2017-05-18T09:48:54.045Z,130144
2017-05-18T09:49:54.037Z,128736
2017-05-18T09:50:54.032Z,130368
2017-05-18T09:51:54.048Z,131840
2017-05-18T09:52:54.063Z,134592
2017-05-18T09:53:54.046Z,135040
2017-05-18T09:54:54.130Z,132896
2017-05-18T09:55:54.028Z,130464
2017-05-18T09:56:54.021Z,128128
2017-05-18T09:57:54.027Z,127424
2017-05-18T09:58:54.029Z,127392
2017-05-18T09:59:54.032Z,129472
2017-05-18T10:00:54.032Z,130784
2017-05-18T10:01:54.030Z,133792
2017-05-18T10:02:54.044Z,135456
2017-05-18T10:03:54.029Z,136224
2017-05-18T10:04:54.055Z,135936
2017-05-18T10:05:54.026Z,134400
2017-05-18T10:06:54.060Z,132864
2017-05-18T10:07:54.056Z,132608
2017-05-18T10:08:54.057Z,134208
2017-05-18T10:09:54.061Z,137152
2017-05-18T10:10:54.024Z,138656
2017-05-18T10:11:54.060Z,142656
2017-05-18T10:12:54.060Z,140768
2017-05-18T10:13:54.061Z,141216
2017-05-18T10:14:54.057Z,121888
2017-05-18T10:15:54.063Z,111840
2017-05-18T10:16:54.056Z,121696
2017-05-18T10:17:54.048Z,119680
2017-05-18T10:18:54.051Z,132192
2017-05-18T10:19:54.052Z,132160
2017-05-18T10:20:54.049Z,105024
2017-05-18T10:21:54.050Z,75072
2017-05-18T10:22:54.055Z,76256
2017-05-18T10:23:54.057Z,69664
2017-05-18T10:24:54.053Z,58944
2017-05-18T10:25:54.051Z,54944
2017-05-18T10:26:54.051Z,54304
2017-05-18T10:27:54.052Z,53952
2017-05-18T10:28:54.059Z,55456
2017-05-18T10:29:54.054Z,58272
2017-05-18T10:30:54.053Z,61952
2017-05-18T10:31:54.124Z,63680
2017-05-18T10:32:54.058Z,61248
2017-05-18T10:33:54.062Z,74304
2017-05-18T10:34:53.964Z,150880
2017-05-18T10:35:53.969Z,62944
2017-05-18T10:36:54.034Z,58464
2017-05-18T10:37:53.978Z,56128
2017-05-18T10:38:54.034Z,53536
2017-05-18T10:39:54.011Z,51008
2017-05-18T10:40:54.039Z,55008
2017-05-18T10:41:53.973Z,56960
2017-05-18T10:42:54.033Z,60064
2017-05-18T10:43:54.021Z,58336
2017-05-18T10:44:54.077Z,56160
2017-05-18T10:45:54.077Z,54944
2017-05-18T10:46:54.059Z,55424
2017-05-18T10:47:54.056Z,56064
2017-05-18T10:48:54.080Z,58208
2017-05-18T10:49:54.083Z,68416
2017-05-18T10:50:54.090Z,116864
2017-05-18T10:51:54.102Z,71744
2017-05-18T10:52:54.106Z,130560
2017-05-18T10:53:54.086Z,144288
2017-05-18T10:54:54.053Z,131968
2017-05-18T10:55:54.054Z,115584
2017-05-18T10:56:54.055Z,142816
2017-05-18T10:57:54.062Z,142016
2017-05-18T10:58:54.057Z,124544
2017-05-18T10:59:54.061Z,146720
2017-05-18T11:00:54.059Z,141280
2017-05-18T11:01:54.060Z,149472
2017-05-18T11:02:54.062Z,157792
2017-05-18T11:03:54.058Z,140320
2017-05-18T11:04:54.086Z,166720
2017-05-18T11:05:54.087Z,163744
2017-05-18T11:06:54.117Z,169600
2017-05-18T11:07:54.116Z,165440
2017-05-18T11:08:54.088Z,107040
2017-05-18T11:09:54.057Z,116800
2017-05-18T11:10:54.084Z,119136
2017-05-18T11:11:54.097Z,121024
2017-05-18T11:12:54.102Z,126656
2017-05-18T11:13:54.116Z,96480
2017-05-18T11:14:54.092Z,111264
2017-05-18T11:15:54.062Z,135424
2017-05-18T11:16:54.094Z,125920
2017-05-18T11:17:54.090Z,78848
2017-05-18T11:18:54.100Z,65216
2017-05-18T11:19:54.115Z,62176
2017-05-18T11:20:54.114Z,60608
2017-05-18T11:21:54.116Z,60448
2017-05-18T11:22:54.101Z,64320
2017-05-18T11:23:54.105Z,69408
2017-05-18T11:24:54.060Z,72352
2017-05-18T11:25:54.123Z,79392
2017-05-18T11:26:54.109Z,87936
2017-05-18T11:27:54.107Z,108800
2017-05-18T11:28:54.102Z,66336
2017-05-18T11:29:54.106Z,54400
2017-05-18T11:30:54.110Z,40160
2017-05-18T11:31:54.103Z,31648
2017-05-18T11:32:54.111Z,25728
2017-05-18T11:33:54.112Z,22656
2017-05-18T11:34:54.076Z,21952
2017-05-18T11:35:54.115Z,21472
2017-05-18T11:36:54.104Z,20928
2017-05-18T11:37:54.077Z,20544
2017-05-18T11:38:54.083Z,20512
2017-05-18T11:39:54.123Z,21120
2017-05-18T11:40:54.141Z,22112
2017-05-18T11:41:54.114Z,23360
2017-05-18T11:42:54.124Z,24832
2017-05-18T11:43:54.115Z,26624
2017-05-18T11:44:54.083Z,28960
2017-05-18T11:45:54.087Z,31712
2017-05-18T11:46:54.084Z,34624
2017-05-18T11:47:54.085Z,37568
2017-05-18T11:48:54.088Z,39488
2017-05-18T11:49:54.090Z,41088
2017-05-18T11:50:54.087Z,42816
2017-05-18T11:51:54.092Z,44672
2017-05-18T11:52:54.091Z,44576
2017-05-18T11:53:54.093Z,44224
2017-05-18T11:54:54.124Z,43616
2017-05-18T11:55:54.118Z,43200
2017-05-18T11:56:54.125Z,44320
2017-05-18T11:57:54.149Z,49120
2017-05-18T11:58:54.129Z,54496
2017-05-18T11:59:54.128Z,59264
2017-05-18T12:00:54.118Z,69280
2017-05-18T12:01:54.090Z,64512
2017-05-18T12:02:54.138Z,67168
2017-05-18T12:03:54.121Z,85888
2017-05-18T12:04:54.101Z,122464
2017-05-18T12:05:54.095Z,122272
2017-05-18T12:06:54.099Z,71936
2017-05-18T12:07:54.095Z,54080
2017-05-18T12:08:54.098Z,42816
2017-05-18T12:09:54.098Z,36928
2017-05-18T12:10:54.097Z,32576
2017-05-18T12:11:54.104Z,30912
2017-05-18T12:12:54.102Z,31520
2017-05-18T12:13:54.103Z,33056
2017-05-18T12:14:54.135Z,33344
2017-05-18T12:15:54.124Z,30048
2017-05-18T12:16:54.128Z,27008
2017-05-18T12:17:54.128Z,24704
2017-05-18T12:18:54.138Z,22720
2017-05-18T12:19:54.102Z,21056
2017-05-18T12:20:54.135Z,19364
2017-05-18T12:21:54.136Z,17804
2017-05-18T12:22:54.163Z,15920
2017-05-18T12:23:54.129Z,13872
2017-05-18T12:24:54.106Z,11920
2017-05-18T12:25:54.108Z,10084
2017-05-18T12:26:54.139Z,8656
2017-05-18T12:27:54.202Z,7464
2017-05-18T12:28:54.180Z,6560
2017-05-18T12:29:54.107Z,5828
2017-05-18T12:30:54.182Z,5180
2017-05-18T12:31:54.135Z,4572
2017-05-18T12:32:54.124Z,4156
2017-05-18T12:33:54.125Z,4024
2017-05-18T12:34:54.142Z,4052
2017-05-18T12:35:54.146Z,4248
2017-05-18T12:36:54.145Z,4464
2017-05-18T12:37:54.146Z,4576
2017-05-18T12:38:54.115Z,4724
2017-05-18T12:39:54.146Z,4884
2017-05-18T12:40:54.152Z,5044
2017-05-18T12:41:54.252Z,5196
2017-05-18T12:42:54.151Z,6160
2017-05-18T12:43:54.147Z,6832
2017-05-18T12:44:54.130Z,7876
2017-05-18T12:45:54.116Z,10192
2017-05-18T12:46:54.141Z,14064
2017-05-18T12:47:54.146Z,16864
2017-05-18T12:48:54.130Z,18564
2017-05-18T12:49:54.141Z,20288
2017-05-18T12:50:54.149Z,22336
2017-05-18T12:51:54.145Z,24608
2017-05-18T12:52:54.136Z,29024
2017-05-18T12:53:54.148Z,31872
2017-05-18T12:54:54.106Z,35424
2017-05-18T12:55:54.120Z,38432
2017-05-18T12:56:54.122Z,42272
2017-05-18T12:57:54.121Z,46208
2017-05-18T12:58:54.123Z,49344
2017-05-18T12:59:54.129Z,51488
2017-05-18T13:00:54.125Z,50848
2017-05-18T13:01:54.132Z,49824
2017-05-18T13:02:54.131Z,48736
2017-05-18T13:03:54.180Z,47328
2017-05-18T13:04:54.092Z,45600
2017-05-18T13:05:54.056Z,43744
2017-05-18T13:06:54.057Z,41088
2017-05-18T13:07:54.097Z,36864
2017-05-18T13:08:54.137Z,31616
2017-05-18T13:09:54.099Z,25664
2017-05-18T13:10:54.068Z,20800
2017-05-18T13:11:54.098Z,17140
2017-05-18T13:12:54.093Z,15544
2017-05-18T13:13:54.072Z,15260
2017-05-18T13:14:54.068Z,14992
2017-05-18T13:15:54.157Z,14188
2017-05-18T13:16:54.162Z,13228
2017-05-18T13:17:54.171Z,12460
2017-05-18T13:18:54.166Z,11960